Terminal Aerodrome Forecast
Issued by NWS

Home | Current Version | Previous Version | Text Only | Print | Product List | Glossary On
Versions: 1 2 3 4 5 6 7 8 9 10 11 12 13 14 15 16 17
000
FTUS46 KOTX 301727
TAFPUW
TAF
KPUW 301727Z 3018/3118 25013G22KT P6SM SCT015 BKN040
     FM302100 27015G24KT P6SM -SHRA BKN040 BKN090
     FM310100 28007KT P6SM SCT040 BKN080
     FM310500 29003KT P6SM FEW050
     FM310900 28002KT P6SM BKN006=

USA.gov is the U.S. government's official web portal to all federal, state and local government web resources and services.